sensor_id;sensor_type;location;lat;lon;timestamp;pressure;altitude;pressure_sealevel;temperature;humidity
68199;BME280;55021;51.554;17.044;2023-02-15T00:01:21;102382.75;;;0.17;77.03
68199;BME280;55021;51.554;17.044;2023-02-15T00:16:23;102364.34;;;0.10;78.07
68199;BME280;55021;51.554;17.044;2023-02-15T00:31:27;102299.38;;;-0.83;79.83
68199;BME280;55021;51.554;17.044;2023-02-15T00:46:30;102370.78;;;0.01;79.64
68199;BME280;55021;51.554;17.044;2023-02-15T01:01:32;102307.22;;;-0.09;76.90
68199;BME280;55021;51.554;17.044;2023-02-15T01:16:34;102361.81;;;0.36;77.68
68199;BME280;55021;51.554;17.044;2023-02-15T01:31:37;102347.63;;;0.05;78.29
68199;BME280;55021;51.554;17.044;2023-02-15T01:46:45;102217.09;;;-0.86;78.49
68199;BME280;55021;51.554;17.044;2023-02-15T02:01:56;102302.56;;;-0.03;77.39
68199;BME280;55021;51.554;17.044;2023-02-15T02:17:07;102272.56;;;-0.39;79.87
68199;BME280;55021;51.554;17.044;2023-02-15T02:47:45;102235.97;;;-0.63;79.57
68199;BME280;55021;51.554;17.044;2023-02-15T03:02:54;102269.06;;;-0.08;77.04
68199;BME280;55021;51.554;17.044;2023-02-15T03:18:01;102255.66;;;-1.05;81.18
68199;BME280;55021;51.554;17.044;2023-02-15T03:33:06;102246.91;;;-0.75;80.22
68199;BME280;55021;51.554;17.044;2023-02-15T03:48:09;102195.53;;;-0.74;77.47
68199;BME280;55021;51.554;17.044;2023-02-15T04:03:23;102239.69;;;-0.36;77.74
68199;BME280;55021;51.554;17.044;2023-02-15T04:18:28;102228.88;;;-0.30;76.34
68199;BME280;55021;51.554;17.044;2023-02-15T04:33:31;102192.22;;;-0.50;76.42
68199;BME280;55021;51.554;17.044;2023-02-15T04:48:34;102186.03;;;-0.82;76.46
68199;BME280;55021;51.554;17.044;2023-02-15T05:03:36;102172.19;;;-0.63;76.30
68199;BME280;55021;51.554;17.044;2023-02-15T05:18:39;102200.03;;;-1.48;78.67
68199;BME280;55021;51.554;17.044;2023-02-15T05:33:41;102093.28;;;-1.59;75.18
68199;BME280;55021;51.554;17.044;2023-02-15T05:48:44;102134.91;;;-1.26;77.48
68199;BME280;55021;51.554;17.044;2023-02-15T06:03:46;102158.91;;;-1.30;79.12
68199;BME280;55021;51.554;17.044;2023-02-15T06:18:49;102184.91;;;-1.09;76.46
68199;BME280;55021;51.554;17.044;2023-02-15T06:33:51;102118.09;;;-1.26;79.56
68199;BME280;55021;51.554;17.044;2023-02-15T06:48:54;102169.06;;;-0.46;76.18
68199;BME280;55021;51.554;17.044;2023-02-15T07:03:56;102149.16;;;-0.02;75.13
68199;BME280;55021;51.554;17.044;2023-02-15T07:18:59;102168.44;;;0.89;75.57
68199;BME280;55021;51.554;17.044;2023-02-15T07:34:02;102155.00;;;1.43;76.11
68199;BME280;55021;51.554;17.044;2023-02-15T07:49:04;102139.78;;;1.70;76.29
68199;BME280;55021;51.554;17.044;2023-02-15T08:04:07;102122.34;;;2.94;77.20
68199;BME280;55021;51.554;17.044;2023-02-15T08:19:11;102092.06;;;3.92;74.96
68199;BME280;55021;51.554;17.044;2023-02-15T08:34:16;102067.09;;;4.45;73.94
68199;BME280;55021;51.554;17.044;2023-02-15T08:49:21;102058.06;;;5.17;71.37
68199;BME280;55021;51.554;17.044;2023-02-15T09:04:24;102047.91;;;5.56;70.35
68199;BME280;55021;51.554;17.044;2023-02-15T09:19:26;102043.66;;;6.16;69.71
68199;BME280;55021;51.554;17.044;2023-02-15T09:34:28;102012.78;;;5.92;68.44
68199;BME280;55021;51.554;17.044;2023-02-15T09:49:36;101992.84;;;6.57;65.36
68199;BME280;55021;51.554;17.044;2023-02-15T10:04:54;101974.16;;;6.99;62.81
68199;BME280;55021;51.554;17.044;2023-02-15T10:20:12;101984.91;;;7.27;63.68
68199;BME280;55021;51.554;17.044;2023-02-15T10:35:22;101949.91;;;7.41;61.40
68199;BME280;55021;51.554;17.044;2023-02-15T10:50:39;101959.28;;;7.77;61.33
68199;BME280;55021;51.554;17.044;2023-02-15T11:05:57;101938.22;;;8.49;59.99
68199;BME280;55021;51.554;17.044;2023-02-15T11:21:05;101908.81;;;8.72;58.41
68199;BME280;55021;51.554;17.044;2023-02-15T11:36:14;101873.97;;;8.69;58.43
68199;BME280;55021;51.554;17.044;2023-02-15T11:51:20;101864.66;;;9.23;56.68
68199;BME280;55021;51.554;17.044;2023-02-15T12:06:25;101800.66;;;9.36;56.53
68199;BME280;55021;51.554;17.044;2023-02-15T12:21:31;101845.66;;;9.96;55.46
68199;BME280;55021;51.554;17.044;2023-02-15T12:36:42;101808.00;;;10.16;54.93
68199;BME280;55021;51.554;17.044;2023-02-15T12:51:49;101809.38;;;10.22;53.65
68199;BME280;55021;51.554;17.044;2023-02-15T13:06:55;101798.41;;;9.77;54.49
68199;BME280;55021;51.554;17.044;2023-02-15T13:22:02;101755.66;;;10.17;54.14
68199;BME280;55021;51.554;17.044;2023-02-15T13:37:12;101760.97;;;10.19;54.70
68199;BME280;55021;51.554;17.044;2023-02-15T13:52:20;101684.69;;;9.80;54.62
68199;BME280;55021;51.554;17.044;2023-02-15T14:07:39;101719.53;;;10.18;53.47
68199;BME280;55021;51.554;17.044;2023-02-15T14:22:50;101665.56;;;9.60;54.05
68199;BME280;55021;51.554;17.044;2023-02-15T14:38:00;101638.72;;;9.80;54.61
68199;BME280;55021;51.554;17.044;2023-02-15T14:53:25;101746.38;;;9.98;56.08
68199;BME280;55021;51.554;17.044;2023-02-15T15:08:37;101728.13;;;9.66;56.72
68199;BME280;55021;51.554;17.044;2023-02-15T15:23:42;101718.66;;;9.13;58.38
68199;BME280;55021;51.554;17.044;2023-02-15T15:38:54;101617.03;;;8.16;59.53
68199;BME280;55021;51.554;17.044;2023-02-15T15:54:04;101717.41;;;7.94;61.37
68199;BME280;55021;51.554;17.044;2023-02-15T16:09:16;101728.19;;;6.75;65.50
68199;BME280;55021;51.554;17.044;2023-02-15T16:24:30;101707.31;;;6.23;66.24
68199;BME280;55021;51.554;17.044;2023-02-15T16:39:40;101573.56;;;4.55;70.31
68199;BME280;55021;51.554;17.044;2023-02-15T16:54:44;101607.81;;;4.34;71.53
68199;BME280;55021;51.554;17.044;2023-02-15T17:09:51;101679.09;;;4.68;70.61
68199;BME280;55021;51.554;17.044;2023-02-15T17:25:00;101683.91;;;4.14;71.58
68199;BME280;55021;51.554;17.044;2023-02-15T17:40:14;101654.16;;;3.70;71.86
68199;BME280;55021;51.554;17.044;2023-02-15T17:55:22;101680.06;;;3.70;72.74
68199;BME280;55021;51.554;17.044;2023-02-15T18:10:25;101605.75;;;3.08;74.05
68199;BME280;55021;51.554;17.044;2023-02-15T18:25:28;101656.03;;;2.83;76.23
68199;BME280;55021;51.554;17.044;2023-02-15T18:40:32;101594.28;;;2.89;73.76
68199;BME280;55021;51.554;17.044;2023-02-15T18:55:34;101658.34;;;1.98;77.24
68199;BME280;55021;51.554;17.044;2023-02-15T19:10:39;101616.00;;;2.64;72.51
68199;BME280;55021;51.554;17.044;2023-02-15T19:25:41;101583.38;;;2.03;76.73
68199;BME280;55021;51.554;17.044;2023-02-15T19:40:44;101581.88;;;2.52;75.29
68199;BME280;55021;51.554;17.044;2023-02-15T19:55:47;101532.66;;;2.92;76.02
68199;BME280;55021;51.554;17.044;2023-02-15T20:10:50;101562.19;;;3.23;72.70
68199;BME280;55021;51.554;17.044;2023-02-15T20:25:54;101529.91;;;2.59;74.96
68199;BME280;55021;51.554;17.044;2023-02-15T20:41:15;101569.19;;;2.21;76.89
68199;BME280;55021;51.554;17.044;2023-02-15T20:56:20;101545.09;;;2.04;74.67
68199;BME280;55021;51.554;17.044;2023-02-15T21:11:23;101537.81;;;2.07;75.20
68199;BME280;55021;51.554;17.044;2023-02-15T21:26:26;101548.72;;;1.84;75.91
68199;BME280;55021;51.554;17.044;2023-02-15T21:41:28;101552.13;;;1.30;77.96
68199;BME280;55021;51.554;17.044;2023-02-15T21:56:32;101529.63;;;0.77;79.54
68199;BME280;55021;51.554;17.044;2023-02-15T22:11:39;101499.91;;;1.06;77.62
68199;BME280;55021;51.554;17.044;2023-02-15T22:26:43;101464.13;;;1.12;75.85
68199;BME280;55021;51.554;17.044;2023-02-15T22:41:46;101489.28;;;1.25;75.34
68199;BME280;55021;51.554;17.044;2023-02-15T22:56:49;101456.16;;;1.12;76.27
68199;BME280;55021;51.554;17.044;2023-02-15T23:11:52;101479.00;;;0.97;77.35
68199;BME280;55021;51.554;17.044;2023-02-15T23:26:55;101482.50;;;0.79;76.48
68199;BME280;55021;51.554;17.044;2023-02-15T23:41:58;101480.81;;;0.56;77.73
68199;BME280;55021;51.554;17.044;2023-02-15T23:57:02;101521.31;;;0.84;76.05
